sensor_id;sensor_type;location;lat;lon;timestamp;P1;durP1;ratioP1;P2;durP2;ratioP2
69789;SDS011;57064;52.046;4.800;2024-03-07T00:00:07;58.67;;;20.77;;
69789;SDS011;57064;52.046;4.800;2024-03-07T00:02:45;57.08;;;20.60;;
69789;SDS011;57064;52.046;4.800;2024-03-07T00:05:13;58.03;;;22.23;;
69789;SDS011;57064;52.046;4.800;2024-03-07T00:07:39;65.32;;;23.58;;
69789;SDS011;57064;52.046;4.800;2024-03-07T00:10:06;62.13;;;24.05;;
69789;SDS011;57064;52.046;4.800;2024-03-07T00:12:33;66.15;;;21.73;;
69789;SDS011;57064;52.046;4.800;2024-03-07T00:15:00;46.20;;;19.13;;
69789;SDS011;57064;52.046;4.800;2024-03-07T00:17:29;56.20;;;21.35;;
69789;SDS011;57064;52.046;4.800;2024-03-07T00:19:55;60.70;;;21.15;;
69789;SDS011;57064;52.046;4.800;2024-03-07T00:22:21;62.08;;;23.55;;
69789;SDS011;57064;52.046;4.800;2024-03-07T00:24:48;66.05;;;26.90;;
69789;SDS011;57064;52.046;4.800;2024-03-07T00:27:14;67.47;;;25.52;;
69789;SDS011;57064;52.046;4.800;2024-03-07T00:29:40;74.90;;;25.88;;
69789;SDS011;57064;52.046;4.800;2024-03-07T00:32:07;78.28;;;26.02;;
69789;SDS011;57064;52.046;4.800;2024-03-07T00:34:33;68.35;;;24.02;;
69789;SDS011;57064;52.046;4.800;2024-03-07T00:36:59;76.35;;;26.17;;
69789;SDS011;57064;52.046;4.800;2024-03-07T00:39:27;74.53;;;24.45;;
69789;SDS011;57064;52.046;4.800;2024-03-07T00:41:53;73.53;;;24.60;;
69789;SDS011;57064;52.046;4.800;2024-03-07T00:44:19;56.17;;;22.10;;
69789;SDS011;57064;52.046;4.800;2024-03-07T00:46:46;54.85;;;20.13;;
69789;SDS011;57064;52.046;4.800;2024-03-07T00:49:12;63.13;;;19.80;;
69789;SDS011;57064;52.046;4.800;2024-03-07T00:51:38;47.22;;;16.48;;
69789;SDS011;57064;52.046;4.800;2024-03-07T00:54:04;71.28;;;17.30;;
69789;SDS011;57064;52.046;4.800;2024-03-07T00:56:32;46.25;;;15.40;;
69789;SDS011;57064;52.046;4.800;2024-03-07T00:58:58;86.75;;;17.00;;
69789;SDS011;57064;52.046;4.800;2024-03-07T01:01:24;87.32;;;18.15;;
69789;SDS011;57064;52.046;4.800;2024-03-07T01:03:51;59.53;;;21.33;;
69789;SDS011;57064;52.046;4.800;2024-03-07T01:06:17;56.85;;;19.95;;
69789;SDS011;57064;52.046;4.800;2024-03-07T01:08:45;58.38;;;19.95;;
69789;SDS011;57064;52.046;4.800;2024-03-07T01:11:11;62.28;;;22.92;;
69789;SDS011;57064;52.046;4.800;2024-03-07T01:13:39;69.75;;;21.70;;
69789;SDS011;57064;52.046;4.800;2024-03-07T01:16:06;67.47;;;25.23;;
69789;SDS011;57064;52.046;4.800;2024-03-07T01:18:33;63.55;;;23.48;;
69789;SDS011;57064;52.046;4.800;2024-03-07T01:20:59;66.35;;;24.95;;
69789;SDS011;57064;52.046;4.800;2024-03-07T01:23:26;70.97;;;25.77;;
69789;SDS011;57064;52.046;4.800;2024-03-07T01:25:57;71.10;;;25.83;;
69789;SDS011;57064;52.046;4.800;2024-03-07T01:28:24;72.18;;;27.00;;
69789;SDS011;57064;52.046;4.800;2024-03-07T01:30:51;77.57;;;24.85;;
69789;SDS011;57064;52.046;4.800;2024-03-07T01:33:19;71.60;;;25.17;;
69789;SDS011;57064;52.046;4.800;2024-03-07T01:35:45;82.05;;;25.30;;
69789;SDS011;57064;52.046;4.800;2024-03-07T01:38:11;66.80;;;24.70;;
69789;SDS011;57064;52.046;4.800;2024-03-07T01:40:39;87.65;;;25.90;;
69789;SDS011;57064;52.046;4.800;2024-03-07T01:43:06;77.78;;;25.38;;
69789;SDS011;57064;52.046;4.800;2024-03-07T01:45:33;72.47;;;25.70;;
69789;SDS011;57064;52.046;4.800;2024-03-07T01:48:03;78.40;;;28.15;;
69789;SDS011;57064;52.046;4.800;2024-03-07T01:50:34;95.68;;;27.05;;
69789;SDS011;57064;52.046;4.800;2024-03-07T01:53:03;77.00;;;27.27;;
69789;SDS011;57064;52.046;4.800;2024-03-07T01:55:31;80.85;;;27.73;;
69789;SDS011;57064;52.046;4.800;2024-03-07T01:57:59;96.38;;;27.13;;
69789;SDS011;57064;52.046;4.800;2024-03-07T02:00:27;79.60;;;27.38;;
69789;SDS011;57064;52.046;4.800;2024-03-07T02:02:53;70.63;;;26.75;;
69789;SDS011;57064;52.046;4.800;2024-03-07T02:05:20;90.65;;;26.85;;
69789;SDS011;57064;52.046;4.800;2024-03-07T02:07:47;87.90;;;27.80;;
69789;SDS011;57064;52.046;4.800;2024-03-07T02:10:14;94.93;;;30.80;;
69789;SDS011;57064;52.046;4.800;2024-03-07T02:12:43;79.03;;;26.48;;
69789;SDS011;57064;52.046;4.800;2024-03-07T02:15:10;91.25;;;27.98;;
69789;SDS011;57064;52.046;4.800;2024-03-07T02:17:36;77.80;;;26.02;;
69789;SDS011;57064;52.046;4.800;2024-03-07T02:20:03;85.55;;;25.45;;
69789;SDS011;57064;52.046;4.800;2024-03-07T02:22:33;97.20;;;28.08;;
69789;SDS011;57064;52.046;4.800;2024-03-07T02:24:59;90.25;;;25.08;;
69789;SDS011;57064;52.046;4.800;2024-03-07T02:27:25;115.10;;;28.10;;
69789;SDS011;57064;52.046;4.800;2024-03-07T02:29:51;106.30;;;27.15;;
69789;SDS011;57064;52.046;4.800;2024-03-07T02:32:19;83.25;;;27.13;;
69789;SDS011;57064;52.046;4.800;2024-03-07T02:34:48;92.38;;;28.50;;
69789;SDS011;57064;52.046;4.800;2024-03-07T02:37:15;119.88;;;27.23;;
69789;SDS011;57064;52.046;4.800;2024-03-07T02:39:41;99.88;;;31.27;;
69789;SDS011;57064;52.046;4.800;2024-03-07T02:42:07;110.05;;;28.17;;
69789;SDS011;57064;52.046;4.800;2024-03-07T02:44:33;102.93;;;28.80;;
69789;SDS011;57064;52.046;4.800;2024-03-07T02:46:59;101.47;;;29.92;;
69789;SDS011;57064;52.046;4.800;2024-03-07T02:49:29;92.40;;;28.50;;
69789;SDS011;57064;52.046;4.800;2024-03-07T02:51:55;95.65;;;28.88;;
69789;SDS011;57064;52.046;4.800;2024-03-07T02:54:21;88.47;;;29.17;;
69789;SDS011;57064;52.046;4.800;2024-03-07T02:56:47;84.00;;;27.35;;
69789;SDS011;57064;52.046;4.800;2024-03-07T02:59:13;97.88;;;31.17;;
69789;SDS011;57064;52.046;4.800;2024-03-07T03:01:40;113.15;;;33.22;;
69789;SDS011;57064;52.046;4.800;2024-03-07T03:04:06;97.70;;;29.92;;
69789;SDS011;57064;52.046;4.800;2024-03-07T03:06:32;111.13;;;34.60;;
69789;SDS011;57064;52.046;4.800;2024-03-07T03:08:58;107.65;;;32.13;;
69789;SDS011;57064;52.046;4.800;2024-03-07T03:11:24;93.75;;;31.05;;
69789;SDS011;57064;52.046;4.800;2024-03-07T03:13:52;101.60;;;30.83;;
69789;SDS011;57064;52.046;4.800;2024-03-07T03:16:19;108.88;;;31.83;;
69789;SDS011;57064;52.046;4.800;2024-03-07T03:18:46;99.60;;;32.80;;
69789;SDS011;57064;52.046;4.800;2024-03-07T03:21:13;91.68;;;31.73;;
69789;SDS011;57064;52.046;4.800;2024-03-07T03:23:41;101.03;;;33.60;;
69789;SDS011;57064;52.046;4.800;2024-03-07T03:26:07;96.07;;;30.83;;
69789;SDS011;57064;52.046;4.800;2024-03-07T03:28:33;99.00;;;34.50;;
69789;SDS011;57064;52.046;4.800;2024-03-07T03:30:59;110.38;;;34.38;;
69789;SDS011;57064;52.046;4.800;2024-03-07T03:33:26;109.90;;;36.03;;
69789;SDS011;57064;52.046;4.800;2024-03-07T03:35:52;111.68;;;34.67;;
69789;SDS011;57064;52.046;4.800;2024-03-07T03:38:20;106.90;;;35.33;;
69789;SDS011;57064;52.046;4.800;2024-03-07T03:40:46;114.90;;;35.00;;
69789;SDS011;57064;52.046;4.800;2024-03-07T03:43:13;119.93;;;36.63;;
69789;SDS011;57064;52.046;4.800;2024-03-07T03:45:40;110.20;;;33.58;;
69789;SDS011;57064;52.046;4.800;2024-03-07T03:48:06;114.13;;;34.60;;
69789;SDS011;57064;52.046;4.800;2024-03-07T03:50:35;112.20;;;35.55;;
69789;SDS011;57064;52.046;4.800;2024-03-07T03:53:01;116.38;;;36.42;;
69789;SDS011;57064;52.046;4.800;2024-03-07T03:55:29;127.63;;;36.03;;
69789;SDS011;57064;52.046;4.800;2024-03-07T03:57:57;120.68;;;35.35;;
69789;SDS011;57064;52.046;4.800;2024-03-07T04:00:25;119.65;;;37.22;;
69789;SDS011;57064;52.046;4.800;2024-03-07T04:02:52;128.07;;;38.15;;
69789;SDS011;57064;52.046;4.800;2024-03-07T04:05:18;121.15;;;37.22;;
69789;SDS011;57064;52.046;4.800;2024-03-07T04:07:46;133.00;;;38.17;;
69789;SDS011;57064;52.046;4.800;2024-03-07T04:10:12;126.25;;;37.30;;
69789;SDS011;57064;52.046;4.800;2024-03-07T04:12:40;122.50;;;37.35;;
69789;SDS011;57064;52.046;4.800;2024-03-07T04:15:11;122.47;;;38.38;;
69789;SDS011;57064;52.046;4.800;2024-03-07T04:17:41;119.53;;;38.42;;
69789;SDS011;57064;52.046;4.800;2024-03-07T04:20:11;111.00;;;39.50;;
69789;SDS011;57064;52.046;4.800;2024-03-07T04:22:38;119.53;;;37.63;;
69789;SDS011;57064;52.046;4.800;2024-03-07T04:25:05;114.15;;;38.15;;
69789;SDS011;57064;52.046;4.800;2024-03-07T04:27:35;118.05;;;39.72;;
69789;SDS011;57064;52.046;4.800;2024-03-07T04:30:05;128.93;;;38.22;;
69789;SDS011;57064;52.046;4.800;2024-03-07T04:32:32;117.32;;;35.03;;
69789;SDS011;57064;52.046;4.800;2024-03-07T04:35:07;109.82;;;33.80;;
69789;SDS011;57064;52.046;4.800;2024-03-07T04:37:35;117.07;;;39.10;;
69789;SDS011;57064;52.046;4.800;2024-03-07T04:40:08;111.25;;;35.40;;
69789;SDS011;57064;52.046;4.800;2024-03-07T04:42:46;135.40;;;36.28;;
69789;SDS011;57064;52.046;4.800;2024-03-07T04:45:14;136.20;;;38.08;;
69789;SDS011;57064;52.046;4.800;2024-03-07T04:47:41;114.57;;;36.42;;
69789;SDS011;57064;52.046;4.800;2024-03-07T04:50:10;129.68;;;37.90;;
69789;SDS011;57064;52.046;4.800;2024-03-07T04:52:38;122.65;;;37.65;;
69789;SDS011;57064;52.046;4.800;2024-03-07T04:55:05;130.55;;;38.63;;
69789;SDS011;57064;52.046;4.800;2024-03-07T04:57:38;117.22;;;36.38;;
69789;SDS011;57064;52.046;4.800;2024-03-07T05:00:09;127.47;;;38.28;;
69789;SDS011;57064;52.046;4.800;2024-03-07T05:02:42;120.10;;;36.72;;
69789;SDS011;57064;52.046;4.800;2024-03-07T05:05:09;118.32;;;37.13;;
69789;SDS011;57064;52.046;4.800;2024-03-07T05:07:35;118.63;;;35.20;;
69789;SDS011;57064;52.046;4.800;2024-03-07T05:10:02;96.15;;;31.77;;
69789;SDS011;57064;52.046;4.800;2024-03-07T05:12:29;112.82;;;32.92;;
69789;SDS011;57064;52.046;4.800;2024-03-07T05:14:56;132.18;;;37.38;;
69789;SDS011;57064;52.046;4.800;2024-03-07T05:17:22;110.90;;;36.65;;
69789;SDS011;57064;52.046;4.800;2024-03-07T05:19:48;116.32;;;37.92;;
69789;SDS011;57064;52.046;4.800;2024-03-07T05:22:15;120.75;;;37.03;;
69789;SDS011;57064;52.046;4.800;2024-03-07T05:24:42;120.97;;;37.55;;
69789;SDS011;57064;52.046;4.800;2024-03-07T05:27:08;125.65;;;38.90;;
69789;SDS011;57064;52.046;4.800;2024-03-07T05:29:38;137.82;;;39.00;;
69789;SDS011;57064;52.046;4.800;2024-03-07T05:34:53;111.55;;;34.53;;
69789;SDS011;57064;52.046;4.800;2024-03-07T05:37:20;127.88;;;39.17;;
69789;SDS011;57064;52.046;4.800;2024-03-07T05:39:50;112.68;;;35.08;;
69789;SDS011;57064;52.046;4.800;2024-03-07T05:42:16;117.75;;;36.58;;
69789;SDS011;57064;52.046;4.800;2024-03-07T05:44:44;121.93;;;37.33;;
69789;SDS011;57064;52.046;4.800;2024-03-07T05:47:10;122.90;;;39.72;;
69789;SDS011;57064;52.046;4.800;2024-03-07T05:49:39;120.00;;;35.10;;
69789;SDS011;57064;52.046;4.800;2024-03-07T05:52:05;131.60;;;35.85;;
69789;SDS011;57064;52.046;4.800;2024-03-07T05:54:32;115.93;;;34.40;;
69789;SDS011;57064;52.046;4.800;2024-03-07T05:56:58;121.07;;;35.25;;
69789;SDS011;57064;52.046;4.800;2024-03-07T05:59:25;116.70;;;35.70;;
69789;SDS011;57064;52.046;4.800;2024-03-07T06:01:53;108.35;;;33.17;;
69789;SDS011;57064;52.046;4.800;2024-03-07T06:04:26;115.18;;;36.83;;
69789;SDS011;57064;52.046;4.800;2024-03-07T06:06:52;111.05;;;34.13;;
69789;SDS011;57064;52.046;4.800;2024-03-07T06:09:19;122.30;;;36.88;;
69789;SDS011;57064;52.046;4.800;2024-03-07T06:11:48;118.18;;;35.53;;
69789;SDS011;57064;52.046;4.800;2024-03-07T06:14:14;127.60;;;37.40;;
69789;SDS011;57064;52.046;4.800;2024-03-07T06:16:43;126.05;;;36.67;;
69789;SDS011;57064;52.046;4.800;2024-03-07T06:19:10;112.40;;;34.55;;
69789;SDS011;57064;52.046;4.800;2024-03-07T06:21:36;112.07;;;36.15;;
69789;SDS011;57064;52.046;4.800;2024-03-07T06:24:09;116.78;;;36.50;;
69789;SDS011;57064;52.046;4.800;2024-03-07T06:26:37;121.25;;;36.08;;
69789;SDS011;57064;52.046;4.800;2024-03-07T06:29:13;113.05;;;39.28;;
69789;SDS011;57064;52.046;4.800;2024-03-07T06:31:43;116.53;;;34.75;;
69789;SDS011;57064;52.046;4.800;2024-03-07T06:34:13;123.10;;;36.55;;
69789;SDS011;57064;52.046;4.800;2024-03-07T06:36:39;116.20;;;36.78;;
69789;SDS011;57064;52.046;4.800;2024-03-07T06:39:05;130.50;;;37.67;;
69789;SDS011;57064;52.046;4.800;2024-03-07T06:41:35;107.63;;;35.28;;
69789;SDS011;57064;52.046;4.800;2024-03-07T06:44:01;122.68;;;40.58;;
69789;SDS011;57064;52.046;4.800;2024-03-07T06:46:28;94.88;;;34.22;;
69789;SDS011;57064;52.046;4.800;2024-03-07T06:48:59;114.93;;;32.88;;
69789;SDS011;57064;52.046;4.800;2024-03-07T06:51:27;107.05;;;33.80;;
69789;SDS011;57064;52.046;4.800;2024-03-07T06:53:53;118.75;;;36.47;;
69789;SDS011;57064;52.046;4.800;2024-03-07T06:56:21;115.78;;;37.92;;
69789;SDS011;57064;52.046;4.800;2024-03-07T06:58:50;116.90;;;37.63;;
69789;SDS011;57064;52.046;4.800;2024-03-07T07:01:16;103.00;;;35.42;;
69789;SDS011;57064;52.046;4.800;2024-03-07T07:03:43;117.30;;;35.38;;
69789;SDS011;57064;52.046;4.800;2024-03-07T07:06:12;117.10;;;35.92;;
69789;SDS011;57064;52.046;4.800;2024-03-07T07:08:38;110.80;;;40.13;;
69789;SDS011;57064;52.046;4.800;2024-03-07T07:11:05;112.97;;;35.63;;
69789;SDS011;57064;52.046;4.800;2024-03-07T07:13:31;120.07;;;36.78;;
69789;SDS011;57064;52.046;4.800;2024-03-07T07:15:58;131.95;;;40.10;;
69789;SDS011;57064;52.046;4.800;2024-03-07T07:18:24;119.22;;;40.78;;
69789;SDS011;57064;52.046;4.800;2024-03-07T07:20:50;103.80;;;37.08;;
69789;SDS011;57064;52.046;4.800;2024-03-07T07:23:19;112.90;;;35.95;;
69789;SDS011;57064;52.046;4.800;2024-03-07T07:25:46;110.68;;;40.25;;
69789;SDS011;57064;52.046;4.800;2024-03-07T07:28:12;116.07;;;37.08;;
69789;SDS011;57064;52.046;4.800;2024-03-07T07:30:38;114.05;;;36.25;;
69789;SDS011;57064;52.046;4.800;2024-03-07T07:33:04;103.80;;;34.78;;
69789;SDS011;57064;52.046;4.800;2024-03-07T07:35:31;137.05;;;40.47;;
69789;SDS011;57064;52.046;4.800;2024-03-07T07:37:59;116.43;;;38.67;;
69789;SDS011;57064;52.046;4.800;2024-03-07T07:40:25;126.28;;;38.08;;
69789;SDS011;57064;52.046;4.800;2024-03-07T07:42:52;124.22;;;38.40;;
69789;SDS011;57064;52.046;4.800;2024-03-07T07:45:19;118.93;;;39.80;;
69789;SDS011;57064;52.046;4.800;2024-03-07T07:47:50;133.55;;;40.78;;
69789;SDS011;57064;52.046;4.800;2024-03-07T07:50:18;124.75;;;40.97;;
69789;SDS011;57064;52.046;4.800;2024-03-07T07:52:47;96.35;;;32.22;;
69789;SDS011;57064;52.046;4.800;2024-03-07T07:55:25;132.27;;;38.05;;
69789;SDS011;57064;52.046;4.800;2024-03-07T07:57:53;112.95;;;37.65;;
69789;SDS011;57064;52.046;4.800;2024-03-07T08:00:21;122.57;;;38.88;;
69789;SDS011;57064;52.046;4.800;2024-03-07T08:02:50;134.63;;;39.50;;
69789;SDS011;57064;52.046;4.800;2024-03-07T08:05:29;113.65;;;40.67;;
69789;SDS011;57064;52.046;4.800;2024-03-07T08:07:58;115.78;;;38.65;;
69789;SDS011;57064;52.046;4.800;2024-03-07T08:10:28;120.25;;;40.60;;
69789;SDS011;57064;52.046;4.800;2024-03-07T08:12:55;129.20;;;38.22;;
69789;SDS011;57064;52.046;4.800;2024-03-07T08:15:23;111.25;;;37.05;;
69789;SDS011;57064;52.046;4.800;2024-03-07T08:17:52;113.40;;;36.63;;
69789;SDS011;57064;52.046;4.800;2024-03-07T08:20:20;114.05;;;36.50;;
69789;SDS011;57064;52.046;4.800;2024-03-07T08:22:47;106.43;;;36.53;;
69789;SDS011;57064;52.046;4.800;2024-03-07T08:25:18;117.07;;;38.33;;
69789;SDS011;57064;52.046;4.800;2024-03-07T08:27:47;103.85;;;35.55;;
69789;SDS011;57064;52.046;4.800;2024-03-07T08:30:14;113.90;;;36.83;;
69789;SDS011;57064;52.046;4.800;2024-03-07T08:32:48;111.47;;;38.08;;
69789;SDS011;57064;52.046;4.800;2024-03-07T08:35:17;118.40;;;36.83;;
69789;SDS011;57064;52.046;4.800;2024-03-07T08:37:44;104.15;;;35.53;;
69789;SDS011;57064;52.046;4.800;2024-03-07T08:40:12;116.22;;;34.72;;
69789;SDS011;57064;52.046;4.800;2024-03-07T08:42:44;82.57;;;32.65;;
69789;SDS011;57064;52.046;4.800;2024-03-07T08:45:11;101.65;;;33.13;;
69789;SDS011;57064;52.046;4.800;2024-03-07T08:47:42;105.90;;;34.72;;
69789;SDS011;57064;52.046;4.800;2024-03-07T08:50:08;88.82;;;30.30;;
69789;SDS011;57064;52.046;4.800;2024-03-07T08:52:35;103.05;;;34.78;;
69789;SDS011;57064;52.046;4.800;2024-03-07T08:55:20;97.15;;;32.95;;
69789;SDS011;57064;52.046;4.800;2024-03-07T08:57:52;97.47;;;32.65;;
69789;SDS011;57064;52.046;4.800;2024-03-07T09:00:19;87.93;;;31.77;;
69789;SDS011;57064;52.046;4.800;2024-03-07T09:02:58;89.43;;;30.58;;
69789;SDS011;57064;52.046;4.800;2024-03-07T09:05:25;99.93;;;30.65;;
69789;SDS011;57064;52.046;4.800;2024-03-07T09:07:52;104.07;;;34.42;;
69789;SDS011;57064;52.046;4.800;2024-03-07T09:10:19;82.50;;;28.67;;
69789;SDS011;57064;52.046;4.800;2024-03-07T09:12:46;83.68;;;27.90;;
69789;SDS011;57064;52.046;4.800;2024-03-07T09:15:15;98.78;;;31.52;;
69789;SDS011;57064;52.046;4.800;2024-03-07T09:17:46;77.38;;;26.85;;
69789;SDS011;57064;52.046;4.800;2024-03-07T09:20:12;90.45;;;29.90;;
69789;SDS011;57064;52.046;4.800;2024-03-07T09:22:42;72.95;;;26.80;;
69789;SDS011;57064;52.046;4.800;2024-03-07T09:25:15;65.50;;;26.45;;
69789;SDS011;57064;52.046;4.800;2024-03-07T09:27:43;58.00;;;22.83;;
69789;SDS011;57064;52.046;4.800;2024-03-07T09:30:11;61.97;;;23.30;;
69789;SDS011;57064;52.046;4.800;2024-03-07T09:32:39;63.55;;;25.00;;
69789;SDS011;57064;52.046;4.800;2024-03-07T09:35:07;53.90;;;23.20;;
69789;SDS011;57064;52.046;4.800;2024-03-07T09:37:37;54.20;;;21.83;;
69789;SDS011;57064;52.046;4.800;2024-03-07T09:40:06;61.92;;;22.42;;
69789;SDS011;57064;52.046;4.800;2024-03-07T09:42:34;44.33;;;20.30;;
69789;SDS011;57064;52.046;4.800;2024-03-07T09:45:02;38.60;;;16.60;;
69789;SDS011;57064;52.046;4.800;2024-03-07T09:47:29;50.33;;;18.92;;
69789;SDS011;57064;52.046;4.800;2024-03-07T09:49:56;42.03;;;18.48;;
69789;SDS011;57064;52.046;4.800;2024-03-07T09:52:23;27.13;;;13.55;;
69789;SDS011;57064;52.046;4.800;2024-03-07T09:54:51;30.88;;;12.82;;
69789;SDS011;57064;52.046;4.800;2024-03-07T09:57:17;24.83;;;12.73;;
69789;SDS011;57064;52.046;4.800;2024-03-07T09:59:43;29.38;;;14.05;;
69789;SDS011;57064;52.046;4.800;2024-03-07T10:02:14;21.58;;;11.68;;
69789;SDS011;57064;52.046;4.800;2024-03-07T10:04:44;27.10;;;13.02;;
69789;SDS011;57064;52.046;4.800;2024-03-07T10:07:18;25.60;;;12.50;;
69789;SDS011;57064;52.046;4.800;2024-03-07T10:09:44;24.63;;;11.73;;
69789;SDS011;57064;52.046;4.800;2024-03-07T10:12:12;25.35;;;12.20;;
69789;SDS011;57064;52.046;4.800;2024-03-07T10:14:49;24.73;;;11.10;;
69789;SDS011;57064;52.046;4.800;2024-03-07T10:17:16;25.60;;;12.80;;
69789;SDS011;57064;52.046;4.800;2024-03-07T10:19:46;25.83;;;12.85;;
69789;SDS011;57064;52.046;4.800;2024-03-07T10:22:16;20.60;;;9.98;;
69789;SDS011;57064;52.046;4.800;2024-03-07T10:24:52;23.75;;;12.82;;
69789;SDS011;57064;52.046;4.800;2024-03-07T10:27:21;23.10;;;11.68;;
69789;SDS011;57064;52.046;4.800;2024-03-07T10:29:51;23.00;;;11.63;;
69789;SDS011;57064;52.046;4.800;2024-03-07T10:32:22;22.45;;;11.75;;
69789;SDS011;57064;52.046;4.800;2024-03-07T10:34:50;26.27;;;12.07;;
69789;SDS011;57064;52.046;4.800;2024-03-07T10:37:17;23.42;;;11.30;;
69789;SDS011;57064;52.046;4.800;2024-03-07T10:39:48;23.10;;;11.35;;
69789;SDS011;57064;52.046;4.800;2024-03-07T10:42:15;20.85;;;10.65;;
69789;SDS011;57064;52.046;4.800;2024-03-07T10:44:43;20.98;;;11.25;;
69789;SDS011;57064;52.046;4.800;2024-03-07T10:47:17;23.77;;;11.32;;
69789;SDS011;57064;52.046;4.800;2024-03-07T10:49:53;22.85;;;12.43;;
69789;SDS011;57064;52.046;4.800;2024-03-07T10:55:23;22.17;;;11.88;;
69789;SDS011;57064;52.046;4.800;2024-03-07T11:00:42;23.10;;;11.45;;
69789;SDS011;57064;52.046;4.800;2024-03-07T11:03:12;22.98;;;11.48;;
69789;SDS011;57064;52.046;4.800;2024-03-07T11:05:39;21.42;;;11.00;;
69789;SDS011;57064;52.046;4.800;2024-03-07T11:08:08;21.70;;;10.57;;
69789;SDS011;57064;52.046;4.800;2024-03-07T11:10:38;22.55;;;10.95;;
69789;SDS011;57064;52.046;4.800;2024-03-07T11:13:11;23.42;;;10.85;;
69789;SDS011;57064;52.046;4.800;2024-03-07T11:15:44;23.85;;;10.88;;
69789;SDS011;57064;52.046;4.800;2024-03-07T11:18:12;24.88;;;11.77;;
69789;SDS011;57064;52.046;4.800;2024-03-07T11:20:39;17.63;;;8.80;;
69789;SDS011;57064;52.046;4.800;2024-03-07T11:23:24;20.13;;;10.52;;
69789;SDS011;57064;52.046;4.800;2024-03-07T11:25:54;21.35;;;10.63;;
69789;SDS011;57064;52.046;4.800;2024-03-07T11:28:32;21.33;;;11.07;;
69789;SDS011;57064;52.046;4.800;2024-03-07T11:31:15;19.60;;;10.65;;
69789;SDS011;57064;52.046;4.800;2024-03-07T11:36:46;20.23;;;8.90;;
69789;SDS011;57064;52.046;4.800;2024-03-07T11:39:39;18.73;;;9.85;;
69789;SDS011;57064;52.046;4.800;2024-03-07T11:42:09;23.52;;;10.98;;
69789;SDS011;57064;52.046;4.800;2024-03-07T11:44:45;21.13;;;10.15;;
69789;SDS011;57064;52.046;4.800;2024-03-07T11:47:12;19.17;;;10.23;;
69789;SDS011;57064;52.046;4.800;2024-03-07T11:49:38;22.15;;;10.35;;
69789;SDS011;57064;52.046;4.800;2024-03-07T11:52:05;21.27;;;9.70;;
69789;SDS011;57064;52.046;4.800;2024-03-07T11:54:40;22.60;;;10.70;;
69789;SDS011;57064;52.046;4.800;2024-03-07T11:57:17;20.55;;;9.77;;
69789;SDS011;57064;52.046;4.800;2024-03-07T11:59:57;18.40;;;9.95;;
69789;SDS011;57064;52.046;4.800;2024-03-07T12:02:26;21.75;;;9.75;;
69789;SDS011;57064;52.046;4.800;2024-03-07T12:04:54;21.20;;;10.68;;
69789;SDS011;57064;52.046;4.800;2024-03-07T12:07:20;21.42;;;10.10;;
69789;SDS011;57064;52.046;4.800;2024-03-07T12:09:49;20.63;;;10.35;;
69789;SDS011;57064;52.046;4.800;2024-03-07T12:12:16;21.05;;;9.85;;
69789;SDS011;57064;52.046;4.800;2024-03-07T12:14:43;22.20;;;8.93;;
69789;SDS011;57064;52.046;4.800;2024-03-07T12:17:09;20.60;;;9.88;;
69789;SDS011;57064;52.046;4.800;2024-03-07T12:19:37;20.13;;;9.90;;
69789;SDS011;57064;52.046;4.800;2024-03-07T12:22:07;19.00;;;9.77;;
69789;SDS011;57064;52.046;4.800;2024-03-07T12:24:47;18.85;;;9.85;;
69789;SDS011;57064;52.046;4.800;2024-03-07T12:27:24;21.35;;;9.70;;
69789;SDS011;57064;52.046;4.800;2024-03-07T12:29:50;17.92;;;8.57;;
69789;SDS011;57064;52.046;4.800;2024-03-07T12:32:18;20.38;;;10.10;;
69789;SDS011;57064;52.046;4.800;2024-03-07T12:34:44;19.33;;;9.77;;
69789;SDS011;57064;52.046;4.800;2024-03-07T12:37:12;22.73;;;11.25;;
69789;SDS011;57064;52.046;4.800;2024-03-07T12:39:42;19.33;;;10.13;;
69789;SDS011;57064;52.046;4.800;2024-03-07T12:42:12;22.67;;;10.40;;
69789;SDS011;57064;52.046;4.800;2024-03-07T12:44:46;20.58;;;10.43;;
69789;SDS011;57064;52.046;4.800;2024-03-07T12:47:16;19.13;;;10.02;;
69789;SDS011;57064;52.046;4.800;2024-03-07T12:49:43;20.27;;;10.55;;
69789;SDS011;57064;52.046;4.800;2024-03-07T12:52:10;19.75;;;10.57;;
69789;SDS011;57064;52.046;4.800;2024-03-07T12:54:40;20.65;;;10.98;;
69789;SDS011;57064;52.046;4.800;2024-03-07T12:57:07;22.05;;;9.90;;
69789;SDS011;57064;52.046;4.800;2024-03-07T12:59:43;21.50;;;10.77;;
69789;SDS011;57064;52.046;4.800;2024-03-07T13:02:09;21.58;;;11.68;;
69789;SDS011;57064;52.046;4.800;2024-03-07T13:04:37;25.73;;;11.18;;
69789;SDS011;57064;52.046;4.800;2024-03-07T13:07:04;25.10;;;10.48;;
69789;SDS011;57064;52.046;4.800;2024-03-07T13:09:31;20.27;;;11.20;;
69789;SDS011;57064;52.046;4.800;2024-03-07T13:11:58;22.30;;;10.45;;
69789;SDS011;57064;52.046;4.800;2024-03-07T13:14:34;21.30;;;9.82;;
69789;SDS011;57064;52.046;4.800;2024-03-07T13:17:04;20.50;;;9.77;;
69789;SDS011;57064;52.046;4.800;2024-03-07T13:19:31;22.15;;;10.25;;
69789;SDS011;57064;52.046;4.800;2024-03-07T13:21:59;25.17;;;10.15;;
69789;SDS011;57064;52.046;4.800;2024-03-07T13:24:27;25.63;;;10.93;;
69789;SDS011;57064;52.046;4.800;2024-03-07T13:26:53;18.80;;;9.93;;
69789;SDS011;57064;52.046;4.800;2024-03-07T13:29:19;21.58;;;10.00;;
69789;SDS011;57064;52.046;4.800;2024-03-07T13:31:53;18.13;;;9.65;;
69789;SDS011;57064;52.046;4.800;2024-03-07T13:34:21;20.30;;;9.75;;
69789;SDS011;57064;52.046;4.800;2024-03-07T13:36:51;20.67;;;10.38;;
69789;SDS011;57064;52.046;4.800;2024-03-07T13:39:17;17.95;;;9.45;;
69789;SDS011;57064;52.046;4.800;2024-03-07T13:41:44;18.38;;;9.18;;
69789;SDS011;57064;52.046;4.800;2024-03-07T13:44:13;17.08;;;9.20;;
69789;SDS011;57064;52.046;4.800;2024-03-07T13:46:40;16.15;;;8.80;;
69789;SDS011;57064;52.046;4.800;2024-03-07T13:49:06;18.75;;;9.52;;
69789;SDS011;57064;52.046;4.800;2024-03-07T13:51:37;17.25;;;8.63;;
69789;SDS011;57064;52.046;4.800;2024-03-07T13:54:14;16.92;;;8.52;;
69789;SDS011;57064;52.046;4.800;2024-03-07T14:00:05;16.77;;;7.55;;
69789;SDS011;57064;52.046;4.800;2024-03-07T14:02:59;16.67;;;8.70;;
69789;SDS011;57064;52.046;4.800;2024-03-07T14:05:55;18.33;;;8.50;;
69789;SDS011;57064;52.046;4.800;2024-03-07T14:17:58;14.55;;;7.07;;
69789;SDS011;57064;52.046;4.800;2024-03-07T14:23:56;18.73;;;8.60;;
69789;SDS011;57064;52.046;4.800;2024-03-07T14:32:13;15.32;;;7.93;;
69789;SDS011;57064;52.046;4.800;2024-03-07T14:37:50;19.05;;;7.55;;
69789;SDS011;57064;52.046;4.800;2024-03-07T14:40:17;16.40;;;7.85;;
69789;SDS011;57064;52.046;4.800;2024-03-07T14:42:46;18.98;;;8.10;;
69789;SDS011;57064;52.046;4.800;2024-03-07T14:45:21;17.90;;;8.80;;
69789;SDS011;57064;52.046;4.800;2024-03-07T14:47:56;17.90;;;8.90;;
69789;SDS011;57064;52.046;4.800;2024-03-07T14:50:22;17.90;;;9.05;;
69789;SDS011;57064;52.046;4.800;2024-03-07T14:52:53;18.90;;;8.07;;
69789;SDS011;57064;52.046;4.800;2024-03-07T14:55:20;17.95;;;8.90;;
69789;SDS011;57064;52.046;4.800;2024-03-07T14:57:46;16.42;;;8.48;;
69789;SDS011;57064;52.046;4.800;2024-03-07T15:00:13;19.48;;;9.73;;
69789;SDS011;57064;52.046;4.800;2024-03-07T15:02:51;18.15;;;9.52;;